sensor_id;sensor_type;location;lat;lon;timestamp;P1;durP1;ratioP1;P2;durP2;ratioP2
35679;SDS011;21803;53.586;10.040;2023-02-03T00:01:00;1.25;;;0.85;;
35679;SDS011;21803;53.586;10.040;2023-02-03T00:03:26;0.80;;;0.70;;
35679;SDS011;21803;53.586;10.040;2023-02-03T00:05:51;0.90;;;0.70;;
35679;SDS011;21803;53.586;10.040;2023-02-03T00:08:18;1.33;;;0.82;;
35679;SDS011;21803;53.586;10.040;2023-02-03T00:10:44;1.67;;;0.82;;
35679;SDS011;21803;53.586;10.040;2023-02-03T00:13:10;0.95;;;0.80;;
35679;SDS011;21803;53.586;10.040;2023-02-03T00:15:36;1.02;;;0.70;;
35679;SDS011;21803;53.586;10.040;2023-02-03T00:18:01;2.80;;;0.70;;
35679;SDS011;21803;53.586;10.040;2023-02-03T00:20:27;1.75;;;0.65;;
35679;SDS011;21803;53.586;10.040;2023-02-03T00:22:53;1.90;;;0.88;;
35679;SDS011;21803;53.586;10.040;2023-02-03T00:25:18;1.30;;;0.80;;
35679;SDS011;21803;53.586;10.040;2023-02-03T00:27:45;0.80;;;0.60;;
35679;SDS011;21803;53.586;10.040;2023-02-03T00:30:11;1.60;;;0.82;;
35679;SDS011;21803;53.586;10.040;2023-02-03T00:32:37;1.33;;;0.90;;
35679;SDS011;21803;53.586;10.040;2023-02-03T00:35:03;1.10;;;0.77;;
35679;SDS011;21803;53.586;10.040;2023-02-03T00:37:29;1.00;;;0.77;;
35679;SDS011;21803;53.586;10.040;2023-02-03T00:39:54;1.10;;;0.88;;
35679;SDS011;21803;53.586;10.040;2023-02-03T00:42:20;1.67;;;0.73;;
35679;SDS011;21803;53.586;10.040;2023-02-03T00:44:45;0.70;;;0.50;;
35679;SDS011;21803;53.586;10.040;2023-02-03T00:47:11;0.70;;;0.70;;
35679;SDS011;21803;53.586;10.040;2023-02-03T00:49:36;1.10;;;0.70;;
35679;SDS011;21803;53.586;10.040;2023-02-03T00:52:02;0.85;;;0.60;;
35679;SDS011;21803;53.586;10.040;2023-02-03T00:54:28;0.75;;;0.70;;
35679;SDS011;21803;53.586;10.040;2023-02-03T00:56:53;0.70;;;0.50;;
35679;SDS011;21803;53.586;10.040;2023-02-03T00:59:19;0.70;;;0.70;;
35679;SDS011;21803;53.586;10.040;2023-02-03T01:01:44;1.38;;;0.70;;
35679;SDS011;21803;53.586;10.040;2023-02-03T01:04:10;2.00;;;0.80;;
35679;SDS011;21803;53.586;10.040;2023-02-03T01:06:35;1.30;;;0.70;;
35679;SDS011;21803;53.586;10.040;2023-02-03T01:09:01;1.60;;;0.70;;
35679;SDS011;21803;53.586;10.040;2023-02-03T01:11:27;2.03;;;0.80;;
35679;SDS011;21803;53.586;10.040;2023-02-03T01:13:53;0.95;;;0.70;;
35679;SDS011;21803;53.586;10.040;2023-02-03T01:16:21;1.27;;;0.70;;
35679;SDS011;21803;53.586;10.040;2023-02-03T01:18:48;1.00;;;0.70;;
35679;SDS011;21803;53.586;10.040;2023-02-03T01:21:17;0.70;;;0.50;;
35679;SDS011;21803;53.586;10.040;2023-02-03T01:23:44;1.33;;;0.60;;
35679;SDS011;21803;53.586;10.040;2023-02-03T01:26:11;0.60;;;0.50;;
35679;SDS011;21803;53.586;10.040;2023-02-03T01:28:38;0.50;;;0.50;;
35679;SDS011;21803;53.586;10.040;2023-02-03T01:31:10;0.95;;;0.73;;
35679;SDS011;21803;53.586;10.040;2023-02-03T01:33:38;2.42;;;0.80;;
35679;SDS011;21803;53.586;10.040;2023-02-03T01:36:05;0.65;;;0.60;;
35679;SDS011;21803;53.586;10.040;2023-02-03T01:38:32;1.25;;;0.60;;
35679;SDS011;21803;53.586;10.040;2023-02-03T01:40:58;0.73;;;0.63;;
35679;SDS011;21803;53.586;10.040;2023-02-03T01:43:57;0.98;;;0.73;;
35679;SDS011;21803;53.586;10.040;2023-02-03T01:49:08;2.10;;;0.70;;
35679;SDS011;21803;53.586;10.040;2023-02-03T01:51:43;1.20;;;0.70;;
35679;SDS011;21803;53.586;10.040;2023-02-03T01:54:43;0.90;;;0.60;;
35679;SDS011;21803;53.586;10.040;2023-02-03T01:57:06;0.52;;;0.52;;
35679;SDS011;21803;53.586;10.040;2023-02-03T01:59:39;0.60;;;0.50;;
35679;SDS011;21803;53.586;10.040;2023-02-03T02:02:05;0.80;;;0.50;;
35679;SDS011;21803;53.586;10.040;2023-02-03T02:07:18;1.42;;;0.90;;
35679;SDS011;21803;53.586;10.040;2023-02-03T02:09:44;0.70;;;0.50;;
35679;SDS011;21803;53.586;10.040;2023-02-03T02:12:10;1.20;;;0.50;;
35679;SDS011;21803;53.586;10.040;2023-02-03T02:14:36;0.95;;;0.65;;
35679;SDS011;21803;53.586;10.040;2023-02-03T02:19:56;0.70;;;0.50;;
35679;SDS011;21803;53.586;10.040;2023-02-03T02:28:36;0.70;;;0.60;;
35679;SDS011;21803;53.586;10.040;2023-02-03T02:31:37;1.27;;;0.60;;
35679;SDS011;21803;53.586;10.040;2023-02-03T02:34:21;0.80;;;0.60;;
35679;SDS011;21803;53.586;10.040;2023-02-03T02:37:24;0.60;;;0.47;;
35679;SDS011;21803;53.586;10.040;2023-02-03T02:44:52;1.05;;;0.57;;
35679;SDS011;21803;53.586;10.040;2023-02-03T02:47:28;0.77;;;0.60;;
35679;SDS011;21803;53.586;10.040;2023-02-03T02:49:57;0.65;;;0.50;;
35679;SDS011;21803;53.586;10.040;2023-02-03T02:52:45;0.52;;;0.40;;
35679;SDS011;21803;53.586;10.040;2023-02-03T02:55:14;0.68;;;0.60;;
35679;SDS011;21803;53.586;10.040;2023-02-03T02:57:42;0.50;;;0.50;;
35679;SDS011;21803;53.586;10.040;2023-02-03T03:00:11;0.73;;;0.50;;
35679;SDS011;21803;53.586;10.040;2023-02-03T03:02:37;0.95;;;0.70;;
35679;SDS011;21803;53.586;10.040;2023-02-03T03:05:03;0.63;;;0.60;;
35679;SDS011;21803;53.586;10.040;2023-02-03T03:07:34;0.90;;;0.52;;
35679;SDS011;21803;53.586;10.040;2023-02-03T03:10:07;0.40;;;0.40;;
35679;SDS011;21803;53.586;10.040;2023-02-03T03:12:38;0.80;;;0.40;;
35679;SDS011;21803;53.586;10.040;2023-02-03T03:15:10;0.85;;;0.60;;
35679;SDS011;21803;53.586;10.040;2023-02-03T03:17:45;1.48;;;0.55;;
35679;SDS011;21803;53.586;10.040;2023-02-03T03:20:17;0.60;;;0.50;;
35679;SDS011;21803;53.586;10.040;2023-02-03T03:22:47;0.85;;;0.60;;
35679;SDS011;21803;53.586;10.040;2023-02-03T03:25:18;1.35;;;0.60;;
35679;SDS011;21803;53.586;10.040;2023-02-03T03:27:49;0.63;;;0.50;;
35679;SDS011;21803;53.586;10.040;2023-02-03T03:30:21;1.05;;;0.50;;
35679;SDS011;21803;53.586;10.040;2023-02-03T03:32:49;1.05;;;0.50;;
35679;SDS011;21803;53.586;10.040;2023-02-03T03:35:15;0.73;;;0.50;;
35679;SDS011;21803;53.586;10.040;2023-02-03T03:37:47;0.93;;;0.60;;
35679;SDS011;21803;53.586;10.040;2023-02-03T03:40:34;0.55;;;0.45;;
35679;SDS011;21803;53.586;10.040;2023-02-03T03:43:07;0.82;;;0.50;;
35679;SDS011;21803;53.586;10.040;2023-02-03T03:51:08;0.70;;;0.60;;
35679;SDS011;21803;53.586;10.040;2023-02-03T03:53:40;0.57;;;0.50;;
35679;SDS011;21803;53.586;10.040;2023-02-03T03:56:09;0.80;;;0.50;;
35679;SDS011;21803;53.586;10.040;2023-02-03T03:58:38;1.58;;;0.70;;
35679;SDS011;21803;53.586;10.040;2023-02-03T04:01:09;0.70;;;0.50;;
35679;SDS011;21803;53.586;10.040;2023-02-03T04:03:38;0.65;;;0.32;;
35679;SDS011;21803;53.586;10.040;2023-02-03T04:06:12;0.47;;;0.47;;
35679;SDS011;21803;53.586;10.040;2023-02-03T04:08:37;0.65;;;0.50;;
35679;SDS011;21803;53.586;10.040;2023-02-03T04:11:03;0.50;;;0.50;;
35679;SDS011;21803;53.586;10.040;2023-02-03T04:13:30;0.80;;;0.50;;
35679;SDS011;21803;53.586;10.040;2023-02-03T04:15:55;0.65;;;0.50;;
35679;SDS011;21803;53.586;10.040;2023-02-03T04:18:21;0.63;;;0.40;;
35679;SDS011;21803;53.586;10.040;2023-02-03T04:20:46;0.60;;;0.40;;
35679;SDS011;21803;53.586;10.040;2023-02-03T04:23:12;0.75;;;0.50;;
35679;SDS011;21803;53.586;10.040;2023-02-03T04:25:37;0.73;;;0.52;;
35679;SDS011;21803;53.586;10.040;2023-02-03T04:28:03;0.50;;;0.50;;
35679;SDS011;21803;53.586;10.040;2023-02-03T04:30:30;1.05;;;0.40;;
35679;SDS011;21803;53.586;10.040;2023-02-03T04:32:55;0.57;;;0.40;;
35679;SDS011;21803;53.586;10.040;2023-02-03T04:35:21;0.68;;;0.60;;
35679;SDS011;21803;53.586;10.040;2023-02-03T04:37:46;0.75;;;0.50;;
35679;SDS011;21803;53.586;10.040;2023-02-03T04:40:12;0.60;;;0.40;;
35679;SDS011;21803;53.586;10.040;2023-02-03T04:42:38;0.35;;;0.35;;
35679;SDS011;21803;53.586;10.040;2023-02-03T04:45:05;0.57;;;0.35;;
35679;SDS011;21803;53.586;10.040;2023-02-03T04:47:32;0.70;;;0.60;;
35679;SDS011;21803;53.586;10.040;2023-02-03T04:49:57;0.57;;;0.40;;
35679;SDS011;21803;53.586;10.040;2023-02-03T04:52:23;0.75;;;0.60;;
35679;SDS011;21803;53.586;10.040;2023-02-03T04:54:48;0.70;;;0.50;;
35679;SDS011;21803;53.586;10.040;2023-02-03T04:57:14;0.75;;;0.55;;
35679;SDS011;21803;53.586;10.040;2023-02-03T04:59:39;0.90;;;0.40;;
35679;SDS011;21803;53.586;10.040;2023-02-03T05:02:05;0.63;;;0.57;;
35679;SDS011;21803;53.586;10.040;2023-02-03T05:04:32;0.75;;;0.55;;
35679;SDS011;21803;53.586;10.040;2023-02-03T05:06:57;1.20;;;0.50;;
35679;SDS011;21803;53.586;10.040;2023-02-03T05:09:23;1.23;;;0.60;;
35679;SDS011;21803;53.586;10.040;2023-02-03T05:11:49;0.82;;;0.50;;
35679;SDS011;21803;53.586;10.040;2023-02-03T05:14:15;0.50;;;0.50;;
35679;SDS011;21803;53.586;10.040;2023-02-03T05:16:40;1.70;;;0.45;;
35679;SDS011;21803;53.586;10.040;2023-02-03T05:19:06;0.60;;;0.43;;
35679;SDS011;21803;53.586;10.040;2023-02-03T05:21:32;0.30;;;0.30;;
35679;SDS011;21803;53.586;10.040;2023-02-03T05:23:58;0.73;;;0.45;;
35679;SDS011;21803;53.586;10.040;2023-02-03T05:26:24;0.75;;;0.50;;
35679;SDS011;21803;53.586;10.040;2023-02-03T05:28:50;0.50;;;0.35;;
35679;SDS011;21803;53.586;10.040;2023-02-03T05:31:15;0.55;;;0.47;;
35679;SDS011;21803;53.586;10.040;2023-02-03T05:33:41;0.70;;;0.57;;
35679;SDS011;21803;53.586;10.040;2023-02-03T05:36:06;0.65;;;0.50;;
35679;SDS011;21803;53.586;10.040;2023-02-03T05:38:32;1.15;;;0.63;;
35679;SDS011;21803;53.586;10.040;2023-02-03T05:40:58;1.20;;;0.50;;
35679;SDS011;21803;53.586;10.040;2023-02-03T05:43:42;0.70;;;0.50;;
35679;SDS011;21803;53.586;10.040;2023-02-03T05:46:08;0.75;;;0.40;;
35679;SDS011;21803;53.586;10.040;2023-02-03T05:48:33;0.50;;;0.50;;
35679;SDS011;21803;53.586;10.040;2023-02-03T05:50:59;1.10;;;0.60;;
35679;SDS011;21803;53.586;10.040;2023-02-03T05:53:25;0.90;;;0.40;;
35679;SDS011;21803;53.586;10.040;2023-02-03T05:55:51;1.58;;;0.55;;
35679;SDS011;21803;53.586;10.040;2023-02-03T05:58:17;0.63;;;0.45;;
35679;SDS011;21803;53.586;10.040;2023-02-03T06:00:42;0.88;;;0.50;;
35679;SDS011;21803;53.586;10.040;2023-02-03T06:03:08;0.82;;;0.52;;
35679;SDS011;21803;53.586;10.040;2023-02-03T06:05:34;0.65;;;0.50;;
35679;SDS011;21803;53.586;10.040;2023-02-03T06:08:04;0.52;;;0.40;;
35679;SDS011;21803;53.586;10.040;2023-02-03T06:10:30;0.50;;;0.50;;
35679;SDS011;21803;53.586;10.040;2023-02-03T06:12:56;1.33;;;0.60;;
35679;SDS011;21803;53.586;10.040;2023-02-03T06:15:21;0.40;;;0.40;;
35679;SDS011;21803;53.586;10.040;2023-02-03T06:17:47;0.57;;;0.40;;
35679;SDS011;21803;53.586;10.040;2023-02-03T06:20:13;0.77;;;0.52;;
35679;SDS011;21803;53.586;10.040;2023-02-03T06:22:41;1.25;;;0.50;;
35679;SDS011;21803;53.586;10.040;2023-02-03T06:25:07;1.23;;;0.60;;
35679;SDS011;21803;53.586;10.040;2023-02-03T06:27:33;0.73;;;0.55;;
35679;SDS011;21803;53.586;10.040;2023-02-03T06:29:59;0.77;;;0.50;;
35679;SDS011;21803;53.586;10.040;2023-02-03T06:32:24;0.55;;;0.47;;
35679;SDS011;21803;53.586;10.040;2023-02-03T06:34:50;0.70;;;0.40;;
35679;SDS011;21803;53.586;10.040;2023-02-03T06:37:15;0.40;;;0.40;;
35679;SDS011;21803;53.586;10.040;2023-02-03T06:39:41;0.40;;;0.35;;
35679;SDS011;21803;53.586;10.040;2023-02-03T06:42:07;0.22;;;0.22;;
35679;SDS011;21803;53.586;10.040;2023-02-03T06:44:32;0.40;;;0.32;;
35679;SDS011;21803;53.586;10.040;2023-02-03T06:46:58;0.52;;;0.50;;
35679;SDS011;21803;53.586;10.040;2023-02-03T06:49:23;0.82;;;0.60;;
35679;SDS011;21803;53.586;10.040;2023-02-03T06:51:49;0.75;;;0.52;;
35679;SDS011;21803;53.586;10.040;2023-02-03T06:54:16;0.55;;;0.50;;
35679;SDS011;21803;53.586;10.040;2023-02-03T06:56:42;0.85;;;0.60;;
35679;SDS011;21803;53.586;10.040;2023-02-03T06:59:08;1.10;;;0.50;;
35679;SDS011;21803;53.586;10.040;2023-02-03T07:01:34;0.60;;;0.50;;
35679;SDS011;21803;53.586;10.040;2023-02-03T07:04:00;0.82;;;0.47;;
35679;SDS011;21803;53.586;10.040;2023-02-03T07:06:25;0.55;;;0.45;;
35679;SDS011;21803;53.586;10.040;2023-02-03T07:08:54;0.65;;;0.50;;
35679;SDS011;21803;53.586;10.040;2023-02-03T07:11:20;0.77;;;0.50;;
35679;SDS011;21803;53.586;10.040;2023-02-03T07:13:45;0.80;;;0.50;;
35679;SDS011;21803;53.586;10.040;2023-02-03T07:16:11;0.75;;;0.52;;
35679;SDS011;21803;53.586;10.040;2023-02-03T07:18:37;0.45;;;0.45;;
35679;SDS011;21803;53.586;10.040;2023-02-03T07:21:03;0.57;;;0.40;;
35679;SDS011;21803;53.586;10.040;2023-02-03T07:23:30;1.75;;;0.50;;
35679;SDS011;21803;53.586;10.040;2023-02-03T07:25:57;0.85;;;0.50;;
35679;SDS011;21803;53.586;10.040;2023-02-03T07:28:24;1.67;;;0.35;;
35679;SDS011;21803;53.586;10.040;2023-02-03T07:30:49;0.82;;;0.60;;
35679;SDS011;21803;53.586;10.040;2023-02-03T07:33:15;1.05;;;0.50;;
35679;SDS011;21803;53.586;10.040;2023-02-03T07:35:40;0.40;;;0.40;;
35679;SDS011;21803;53.586;10.040;2023-02-03T07:38:06;0.93;;;0.50;;
35679;SDS011;21803;53.586;10.040;2023-02-03T07:40:31;0.80;;;0.70;;
35679;SDS011;21803;53.586;10.040;2023-02-03T07:42:57;0.82;;;0.50;;
35679;SDS011;21803;53.586;10.040;2023-02-03T07:45:24;0.80;;;0.50;;
35679;SDS011;21803;53.586;10.040;2023-02-03T07:47:50;0.50;;;0.45;;
35679;SDS011;21803;53.586;10.040;2023-02-03T07:50:15;0.73;;;0.57;;
35679;SDS011;21803;53.586;10.040;2023-02-03T07:52:41;0.63;;;0.55;;
35679;SDS011;21803;53.586;10.040;2023-02-03T07:55:07;0.65;;;0.50;;
35679;SDS011;21803;53.586;10.040;2023-02-03T07:57:33;0.57;;;0.47;;
35679;SDS011;21803;53.586;10.040;2023-02-03T07:59:58;0.73;;;0.50;;
35679;SDS011;21803;53.586;10.040;2023-02-03T08:02:24;0.50;;;0.40;;
35679;SDS011;21803;53.586;10.040;2023-02-03T08:04:49;0.82;;;0.45;;
35679;SDS011;21803;53.586;10.040;2023-02-03T08:07:15;0.93;;;0.50;;
35679;SDS011;21803;53.586;10.040;2023-02-03T08:09:40;1.50;;;0.70;;
35679;SDS011;21803;53.586;10.040;2023-02-03T08:12:06;0.80;;;0.35;;
35679;SDS011;21803;53.586;10.040;2023-02-03T08:14:32;0.57;;;0.43;;
35679;SDS011;21803;53.586;10.040;2023-02-03T08:16:57;0.40;;;0.40;;
35679;SDS011;21803;53.586;10.040;2023-02-03T08:19:22;0.60;;;0.50;;
35679;SDS011;21803;53.586;10.040;2023-02-03T08:21:49;1.08;;;0.68;;
35679;SDS011;21803;53.586;10.040;2023-02-03T08:24:15;0.90;;;0.60;;
35679;SDS011;21803;53.586;10.040;2023-02-03T08:26:41;0.70;;;0.50;;
35679;SDS011;21803;53.586;10.040;2023-02-03T08:29:06;0.50;;;0.40;;
35679;SDS011;21803;53.586;10.040;2023-02-03T08:31:32;1.70;;;0.70;;
35679;SDS011;21803;53.586;10.040;2023-02-03T08:33:57;0.70;;;0.40;;
35679;SDS011;21803;53.586;10.040;2023-02-03T08:36:23;1.23;;;0.63;;
35679;SDS011;21803;53.586;10.040;2023-02-03T08:38:49;0.40;;;0.38;;
35679;SDS011;21803;53.586;10.040;2023-02-03T08:41:15;0.50;;;0.43;;
35679;SDS011;21803;53.586;10.040;2023-02-03T08:43:42;0.70;;;0.60;;
35679;SDS011;21803;53.586;10.040;2023-02-03T08:46:09;1.00;;;0.52;;
35679;SDS011;21803;53.586;10.040;2023-02-03T08:48:35;1.70;;;0.55;;
35679;SDS011;21803;53.586;10.040;2023-02-03T08:51:01;1.27;;;0.50;;
35679;SDS011;21803;53.586;10.040;2023-02-03T08:53:32;0.82;;;0.40;;
35679;SDS011;21803;53.586;10.040;2023-02-03T08:55:58;1.23;;;0.60;;
35679;SDS011;21803;53.586;10.040;2023-02-03T08:58:23;1.38;;;0.60;;
35679;SDS011;21803;53.586;10.040;2023-02-03T09:00:49;0.90;;;0.65;;
35679;SDS011;21803;53.586;10.040;2023-02-03T09:03:17;0.98;;;0.70;;
35679;SDS011;21803;53.586;10.040;2023-02-03T09:05:42;1.17;;;0.63;;
35679;SDS011;21803;53.586;10.040;2023-02-03T09:08:08;0.77;;;0.52;;
35679;SDS011;21803;53.586;10.040;2023-02-03T09:10:33;1.08;;;0.60;;
35679;SDS011;21803;53.586;10.040;2023-02-03T09:13:00;0.80;;;0.70;;
35679;SDS011;21803;53.586;10.040;2023-02-03T09:15:25;1.23;;;0.85;;
35679;SDS011;21803;53.586;10.040;2023-02-03T09:17:51;1.50;;;0.80;;
35679;SDS011;21803;53.586;10.040;2023-02-03T09:20:17;0.65;;;0.45;;
35679;SDS011;21803;53.586;10.040;2023-02-03T09:22:43;0.73;;;0.40;;
35679;SDS011;21803;53.586;10.040;2023-02-03T09:25:08;1.17;;;0.70;;
35679;SDS011;21803;53.586;10.040;2023-02-03T09:27:34;1.35;;;0.68;;
35679;SDS011;21803;53.586;10.040;2023-02-03T09:29:59;1.25;;;0.50;;
35679;SDS011;21803;53.586;10.040;2023-02-03T09:32:25;1.23;;;0.60;;
35679;SDS011;21803;53.586;10.040;2023-02-03T09:34:50;0.63;;;0.50;;
35679;SDS011;21803;53.586;10.040;2023-02-03T09:37:16;0.80;;;0.68;;
35679;SDS011;21803;53.586;10.040;2023-02-03T09:39:41;0.90;;;0.55;;
35679;SDS011;21803;53.586;10.040;2023-02-03T09:45:37;0.90;;;0.47;;
35679;SDS011;21803;53.586;10.040;2023-02-03T09:47:53;1.73;;;0.52;;
35679;SDS011;21803;53.586;10.040;2023-02-03T09:50:25;1.48;;;0.68;;
35679;SDS011;21803;53.586;10.040;2023-02-03T09:52:54;1.20;;;0.50;;
35679;SDS011;21803;53.586;10.040;2023-02-03T09:58:10;2.28;;;0.93;;
35679;SDS011;21803;53.586;10.040;2023-02-03T10:01:01;1.13;;;0.82;;
35679;SDS011;21803;53.586;10.040;2023-02-03T10:03:47;1.88;;;0.80;;
35679;SDS011;21803;53.586;10.040;2023-02-03T10:14:34;2.22;;;0.80;;
35679;SDS011;21803;53.586;10.040;2023-02-03T10:17:08;1.30;;;0.85;;
35679;SDS011;21803;53.586;10.040;2023-02-03T10:22:19;2.28;;;0.90;;
35679;SDS011;21803;53.586;10.040;2023-02-03T10:24:51;2.28;;;1.00;;
35679;SDS011;21803;53.586;10.040;2023-02-03T10:27:27;2.58;;;1.00;;
35679;SDS011;21803;53.586;10.040;2023-02-03T10:29:55;1.80;;;0.80;;
35679;SDS011;21803;53.586;10.040;2023-02-03T10:32:34;1.48;;;0.68;;
35679;SDS011;21803;53.586;10.040;2023-02-03T10:35:01;2.20;;;0.98;;
35679;SDS011;21803;53.586;10.040;2023-02-03T10:37:35;2.15;;;1.00;;
35679;SDS011;21803;53.586;10.040;2023-02-03T10:40:10;2.53;;;0.80;;
35679;SDS011;21803;53.586;10.040;2023-02-03T10:42:38;2.55;;;0.90;;
35679;SDS011;21803;53.586;10.040;2023-02-03T10:45:22;1.75;;;0.85;;
35679;SDS011;21803;53.586;10.040;2023-02-03T10:47:51;1.80;;;0.77;;
35679;SDS011;21803;53.586;10.040;2023-02-03T10:50:21;3.47;;;1.10;;
35679;SDS011;21803;53.586;10.040;2023-02-03T10:53:18;2.33;;;0.90;;
35679;SDS011;21803;53.586;10.040;2023-02-03T10:55:46;2.92;;;1.10;;
35679;SDS011;21803;53.586;10.040;2023-02-03T10:58:23;2.15;;;0.80;;
35679;SDS011;21803;53.586;10.040;2023-02-03T11:00:55;1.83;;;0.80;;
35679;SDS011;21803;53.586;10.040;2023-02-03T11:03:54;2.72;;;1.20;;
35679;SDS011;21803;53.586;10.040;2023-02-03T11:06:23;1.98;;;0.75;;
35679;SDS011;21803;53.586;10.040;2023-02-03T11:08:49;2.03;;;0.80;;
35679;SDS011;21803;53.586;10.040;2023-02-03T11:11:26;3.22;;;0.93;;
35679;SDS011;21803;53.586;10.040;2023-02-03T11:16:29;2.03;;;0.70;;
35679;SDS011;21803;53.586;10.040;2023-02-03T11:19:04;2.80;;;1.20;;
35679;SDS011;21803;53.586;10.040;2023-02-03T11:26:51;3.55;;;1.20;;
35679;SDS011;21803;53.586;10.040;2023-02-03T11:29:32;2.08;;;1.10;;
35679;SDS011;21803;53.586;10.040;2023-02-03T11:34:57;4.78;;;1.40;;
35679;SDS011;21803;53.586;10.040;2023-02-03T11:37:38;4.25;;;1.33;;
35679;SDS011;21803;53.586;10.040;2023-02-03T11:42:39;3.53;;;1.30;;
35679;SDS011;21803;53.586;10.040;2023-02-03T11:45:13;2.47;;;1.10;;
35679;SDS011;21803;53.586;10.040;2023-02-03T11:47:48;3.20;;;1.30;;
35679;SDS011;21803;53.586;10.040;2023-02-03T11:56:14;3.95;;;1.40;;
35679;SDS011;21803;53.586;10.040;2023-02-03T11:59:06;4.45;;;1.35;;
35679;SDS011;21803;53.586;10.040;2023-02-03T12:10:30;2.95;;;1.10;;
35679;SDS011;21803;53.586;10.040;2023-02-03T12:16:40;4.25;;;1.38;;
35679;SDS011;21803;53.586;10.040;2023-02-03T12:27:53;3.40;;;1.60;;
35679;SDS011;21803;53.586;10.040;2023-02-03T12:30:24;4.10;;;1.20;;
35679;SDS011;21803;53.586;10.040;2023-02-03T12:32:57;3.35;;;1.02;;
35679;SDS011;21803;53.586;10.040;2023-02-03T12:35:33;4.93;;;1.48;;
35679;SDS011;21803;53.586;10.040;2023-02-03T12:38:06;2.67;;;1.38;;
35679;SDS011;21803;53.586;10.040;2023-02-03T12:40:42;3.30;;;1.20;;
35679;SDS011;21803;53.586;10.040;2023-02-03T12:43:24;3.05;;;1.35;;
35679;SDS011;21803;53.586;10.040;2023-02-03T12:46:10;2.80;;;1.10;;
35679;SDS011;21803;53.586;10.040;2023-02-03T12:54:24;4.60;;;1.67;;
35679;SDS011;21803;53.586;10.040;2023-02-03T13:00:20;3.47;;;1.40;;
35679;SDS011;21803;53.586;10.040;2023-02-03T13:03:09;2.67;;;1.20;;
35679;SDS011;21803;53.586;10.040;2023-02-03T13:11:20;3.15;;;1.35;;
35679;SDS011;21803;53.586;10.040;2023-02-03T13:13:57;4.53;;;1.40;;
35679;SDS011;21803;53.586;10.040;2023-02-03T13:16:31;5.25;;;1.83;;
35679;SDS011;21803;53.586;10.040;2023-02-03T13:19:08;3.58;;;1.25;;
35679;SDS011;21803;53.586;10.040;2023-02-03T13:21:46;4.38;;;1.30;;
35679;SDS011;21803;53.586;10.040;2023-02-03T13:24:12;3.13;;;1.20;;
35679;SDS011;21803;53.586;10.040;2023-02-03T13:34:37;3.75;;;1.15;;
35679;SDS011;21803;53.586;10.040;2023-02-03T13:37:57;2.58;;;1.20;;
35679;SDS011;21803;53.586;10.040;2023-02-03T13:43:27;5.05;;;1.58;;
35679;SDS011;21803;53.586;10.040;2023-02-03T13:45:55;1.95;;;1.27;;
35679;SDS011;21803;53.586;10.040;2023-02-03T13:48:23;3.40;;;1.42;;
35679;SDS011;21803;53.586;10.040;2023-02-03T13:51:02;3.35;;;1.40;;
35679;SDS011;21803;53.586;10.040;2023-02-03T13:53:40;4.78;;;1.55;;
35679;SDS011;21803;53.586;10.040;2023-02-03T13:56:21;3.50;;;1.30;;
35679;SDS011;21803;53.586;10.040;2023-02-03T14:04:01;3.63;;;1.27;;
35679;SDS011;21803;53.586;10.040;2023-02-03T14:09:00;3.15;;;1.30;;
35679;SDS011;21803;53.586;10.040;2023-02-03T14:19:07;4.18;;;1.58;;
35679;SDS011;21803;53.586;10.040;2023-02-03T14:21:47;4.57;;;1.40;;
35679;SDS011;21803;53.586;10.040;2023-02-03T14:24:16;5.53;;;1.50;;
35679;SDS011;21803;53.586;10.040;2023-02-03T14:26:52;3.92;;;1.80;;
35679;SDS011;21803;53.586;10.040;2023-02-03T14:29:24;3.45;;;1.50;;
35679;SDS011;21803;53.586;10.040;2023-02-03T14:31:59;3.67;;;1.63;;
35679;SDS011;21803;53.586;10.040;2023-02-03T14:34:52;4.43;;;1.58;;
35679;SDS011;21803;53.586;10.040;2023-02-03T14:40:03;3.30;;;1.40;;
35679;SDS011;21803;53.586;10.040;2023-02-03T14:57:05;6.43;;;1.60;;
35679;SDS011;21803;53.586;10.040;2023-02-03T15:00:05;3.42;;;1.33;;
35679;SDS011;21803;53.586;10.040;2023-02-03T15:02:31;3.22;;;1.35;;
35679;SDS011;21803;53.586;10.040;2023-02-03T15:07:37;3.72;;;1.30;;
35679;SDS011;21803;53.586;10.040;2023-02-03T15:10:18;3.58;;;1.52;;
35679;SDS011;21803;53.586;10.040;2023-02-03T15:12:47;4.50;;;1.40;;
35679;SDS011;21803;53.586;10.040;2023-02-03T15:15:18;3.70;;;1.30;;
35679;SDS011;21803;53.586;10.040;2023-02-03T15:17:52;3.10;;;1.42;;
35679;SDS011;21803;53.586;10.040;2023-02-03T15:22:57;3.05;;;1.30;;
35679;SDS011;21803;53.586;10.040;2023-02-03T15:25:23;3.60;;;1.48;;
35679;SDS011;21803;53.586;10.040;2023-02-03T15:27:50;5.00;;;1.80;;
35679;SDS011;21803;53.586;10.040;2023-02-03T15:30:19;4.65;;;1.45;;
35679;SDS011;21803;53.586;10.040;2023-02-03T15:35:31;5.93;;;1.25;;
35679;SDS011;21803;53.586;10.040;2023-02-03T15:38:00;5.47;;;1.95;;
35679;SDS011;21803;53.586;10.040;2023-02-03T15:40:43;4.68;;;1.40;;
35679;SDS011;21803;53.586;10.040;2023-02-03T15:43:20;4.15;;;1.65;;
35679;SDS011;21803;53.586;10.040;2023-02-03T15:48:31;3.80;;;1.42;;
35679;SDS011;21803;53.586;10.040;2023-02-03T15:51:26;4.07;;;1.40;;
35679;SDS011;21803;53.586;10.040;2023-02-03T15:56:49;4.97;;;1.50;;
35679;SDS011;21803;53.586;10.040;2023-02-03T15:59:24;4.55;;;1.85;;
35679;SDS011;21803;53.586;10.040;2023-02-03T16:01:56;5.05;;;1.63;;
35679;SDS011;21803;53.586;10.040;2023-02-03T16:04:24;4.25;;;1.60;;
35679;SDS011;21803;53.586;10.040;2023-02-03T16:06:50;5.55;;;1.55;;
35679;SDS011;21803;53.586;10.040;2023-02-03T16:09:24;3.95;;;1.67;;
35679;SDS011;21803;53.586;10.040;2023-02-03T16:12:00;4.25;;;1.67;;
35679;SDS011;21803;53.586;10.040;2023-02-03T16:14:35;5.03;;;1.70;;
35679;SDS011;21803;53.586;10.040;2023-02-03T16:17:01;3.28;;;1.42;;
35679;SDS011;21803;53.586;10.040;2023-02-03T16:19:28;3.75;;;1.80;;
35679;SDS011;21803;53.586;10.040;2023-02-03T16:21:57;5.82;;;1.60;;
35679;SDS011;21803;53.586;10.040;2023-02-03T16:29:53;3.92;;;1.55;;
35679;SDS011;21803;53.586;10.040;2023-02-03T16:32:59;4.22;;;1.60;;
35679;SDS011;21803;53.586;10.040;2023-02-03T16:35:59;4.55;;;1.55;;
35679;SDS011;21803;53.586;10.040;2023-02-03T16:38:57;6.13;;;1.70;;
35679;SDS011;21803;53.586;10.040;2023-02-03T16:41:44;4.03;;;1.50;;
35679;SDS011;21803;53.586;10.040;2023-02-03T16:44:28;3.65;;;1.58;;
35679;SDS011;21803;53.586;10.040;2023-02-03T16:47:26;5.38;;;1.70;;
35679;SDS011;21803;53.586;10.040;2023-02-03T16:50:15;5.32;;;2.00;;
35679;SDS011;21803;53.586;10.040;2023-02-03T16:53:05;3.85;;;1.50;;
35679;SDS011;21803;53.586;10.040;2023-02-03T16:55:37;3.78;;;1.40;;
35679;SDS011;21803;53.586;10.040;2023-02-03T16:58:03;4.63;;;1.60;;
35679;SDS011;21803;53.586;10.040;2023-02-03T17:00:29;6.95;;;2.00;;
35679;SDS011;21803;53.586;10.040;2023-02-03T17:02:55;5.22;;;1.60;;
35679;SDS011;21803;53.586;10.040;2023-02-03T17:05:20;3.88;;;1.65;;
35679;SDS011;21803;53.586;10.040;2023-02-03T17:07:47;4.82;;;1.85;;
35679;SDS011;21803;53.586;10.040;2023-02-03T17:10:13;3.60;;;1.60;;
35679;SDS011;21803;53.586;10.040;2023-02-03T17:12:38;4.97;;;1.88;;
35679;SDS011;21803;53.586;10.040;2023-02-03T17:15:04;4.90;;;1.63;;
35679;SDS011;21803;53.586;10.040;2023-02-03T17:17:30;3.70;;;1.58;;
35679;SDS011;21803;53.586;10.040;2023-02-03T17:19:56;3.50;;;1.30;;
35679;SDS011;21803;53.586;10.040;2023-02-03T17:22:23;6.40;;;2.00;;
35679;SDS011;21803;53.586;10.040;2023-02-03T17:24:49;3.85;;;1.52;;
35679;SDS011;21803;53.586;10.040;2023-02-03T17:27:15;4.82;;;1.88;;
35679;SDS011;21803;53.586;10.040;2023-02-03T17:29:40;6.25;;;1.98;;